sensor_id;sensor_type;location;lat;lon;timestamp;P1;durP1;ratioP1;P2;durP2;ratioP2
71606;SDS011;60641;53.556;9.914;2024-01-15T00:01:47;4.40;;;0.60;;
71606;SDS011;60641;53.556;9.914;2024-01-15T00:04:14;5.50;;;0.80;;
71606;SDS011;60641;53.556;9.914;2024-01-15T00:06:40;7.10;;;0.70;;
71606;SDS011;60641;53.556;9.914;2024-01-15T00:09:07;5.60;;;0.70;;
71606;SDS011;60641;53.556;9.914;2024-01-15T00:11:34;5.20;;;0.80;;
71606;SDS011;60641;53.556;9.914;2024-01-15T00:14:00;4.20;;;0.60;;
71606;SDS011;60641;53.556;9.914;2024-01-15T00:16:26;5.80;;;0.60;;
71606;SDS011;60641;53.556;9.914;2024-01-15T00:18:53;7.10;;;1.00;;
71606;SDS011;60641;53.556;9.914;2024-01-15T00:21:19;7.10;;;0.80;;
71606;SDS011;60641;53.556;9.914;2024-01-15T00:23:46;8.60;;;1.10;;
71606;SDS011;60641;53.556;9.914;2024-01-15T00:26:12;8.00;;;1.10;;
71606;SDS011;60641;53.556;9.914;2024-01-15T00:28:39;6.10;;;0.60;;
71606;SDS011;60641;53.556;9.914;2024-01-15T00:31:06;9.40;;;0.80;;
71606;SDS011;60641;53.556;9.914;2024-01-15T00:33:32;8.30;;;1.10;;
71606;SDS011;60641;53.556;9.914;2024-01-15T00:35:58;6.70;;;0.90;;
71606;SDS011;60641;53.556;9.914;2024-01-15T00:38:25;6.30;;;0.60;;
71606;SDS011;60641;53.556;9.914;2024-01-15T00:40:51;8.30;;;0.90;;
71606;SDS011;60641;53.556;9.914;2024-01-15T00:43:18;9.20;;;0.70;;
71606;SDS011;60641;53.556;9.914;2024-01-15T00:45:45;6.40;;;1.00;;
71606;SDS011;60641;53.556;9.914;2024-01-15T00:48:11;6.80;;;0.80;;
71606;SDS011;60641;53.556;9.914;2024-01-15T00:50:38;7.30;;;0.70;;
71606;SDS011;60641;53.556;9.914;2024-01-15T00:53:05;5.40;;;0.70;;
71606;SDS011;60641;53.556;9.914;2024-01-15T00:55:31;7.20;;;0.80;;
71606;SDS011;60641;53.556;9.914;2024-01-15T00:57:58;7.30;;;0.90;;
71606;SDS011;60641;53.556;9.914;2024-01-15T01:00:24;6.40;;;0.70;;
71606;SDS011;60641;53.556;9.914;2024-01-15T01:02:50;8.60;;;1.00;;
71606;SDS011;60641;53.556;9.914;2024-01-15T01:05:17;7.30;;;0.80;;
71606;SDS011;60641;53.556;9.914;2024-01-15T01:07:43;9.70;;;0.90;;
71606;SDS011;60641;53.556;9.914;2024-01-15T01:10:10;5.60;;;0.70;;
71606;SDS011;60641;53.556;9.914;2024-01-15T01:12:36;7.70;;;0.80;;
71606;SDS011;60641;53.556;9.914;2024-01-15T01:15:03;8.10;;;1.30;;
71606;SDS011;60641;53.556;9.914;2024-01-15T01:17:30;10.20;;;1.20;;
71606;SDS011;60641;53.556;9.914;2024-01-15T01:19:57;11.80;;;1.20;;
71606;SDS011;60641;53.556;9.914;2024-01-15T01:22:23;7.50;;;0.90;;
71606;SDS011;60641;53.556;9.914;2024-01-15T01:24:49;11.60;;;1.20;;
71606;SDS011;60641;53.556;9.914;2024-01-15T01:27:16;9.20;;;1.00;;
71606;SDS011;60641;53.556;9.914;2024-01-15T01:29:42;10.00;;;0.90;;
71606;SDS011;60641;53.556;9.914;2024-01-15T01:32:09;7.60;;;0.80;;
71606;SDS011;60641;53.556;9.914;2024-01-15T01:34:39;7.60;;;0.80;;
71606;SDS011;60641;53.556;9.914;2024-01-15T01:37:08;8.90;;;1.30;;
71606;SDS011;60641;53.556;9.914;2024-01-15T01:39:35;10.60;;;1.10;;
71606;SDS011;60641;53.556;9.914;2024-01-15T01:42:01;9.60;;;1.00;;
71606;SDS011;60641;53.556;9.914;2024-01-15T01:44:28;8.20;;;0.80;;
71606;SDS011;60641;53.556;9.914;2024-01-15T01:46:54;7.90;;;0.90;;
71606;SDS011;60641;53.556;9.914;2024-01-15T01:49:22;7.00;;;0.70;;
71606;SDS011;60641;53.556;9.914;2024-01-15T01:51:49;8.40;;;0.80;;
71606;SDS011;60641;53.556;9.914;2024-01-15T01:54:15;7.60;;;1.20;;
71606;SDS011;60641;53.556;9.914;2024-01-15T01:56:42;7.50;;;0.60;;
71606;SDS011;60641;53.556;9.914;2024-01-15T01:59:09;5.00;;;0.60;;
71606;SDS011;60641;53.556;9.914;2024-01-15T02:01:37;9.50;;;0.70;;
71606;SDS011;60641;53.556;9.914;2024-01-15T02:04:04;8.00;;;0.70;;
71606;SDS011;60641;53.556;9.914;2024-01-15T02:06:30;11.40;;;1.20;;
71606;SDS011;60641;53.556;9.914;2024-01-15T02:08:57;5.60;;;0.70;;
71606;SDS011;60641;53.556;9.914;2024-01-15T02:11:23;7.50;;;0.60;;
71606;SDS011;60641;53.556;9.914;2024-01-15T02:13:50;8.30;;;0.80;;
71606;SDS011;60641;53.556;9.914;2024-01-15T02:16:16;8.50;;;1.00;;
71606;SDS011;60641;53.556;9.914;2024-01-15T02:18:44;6.00;;;0.60;;
71606;SDS011;60641;53.556;9.914;2024-01-15T02:21:12;5.40;;;0.70;;
71606;SDS011;60641;53.556;9.914;2024-01-15T02:23:38;5.90;;;0.50;;
71606;SDS011;60641;53.556;9.914;2024-01-15T02:26:05;3.90;;;0.50;;
71606;SDS011;60641;53.556;9.914;2024-01-15T02:28:32;6.30;;;0.50;;
71606;SDS011;60641;53.556;9.914;2024-01-15T02:30:59;5.60;;;0.60;;
71606;SDS011;60641;53.556;9.914;2024-01-15T02:33:25;5.20;;;0.50;;
71606;SDS011;60641;53.556;9.914;2024-01-15T02:35:52;4.90;;;0.50;;
71606;SDS011;60641;53.556;9.914;2024-01-15T02:38:19;5.80;;;0.60;;
71606;SDS011;60641;53.556;9.914;2024-01-15T02:40:46;7.60;;;0.80;;
71606;SDS011;60641;53.556;9.914;2024-01-15T02:43:13;7.90;;;1.00;;
71606;SDS011;60641;53.556;9.914;2024-01-15T02:45:40;6.10;;;1.00;;
71606;SDS011;60641;53.556;9.914;2024-01-15T02:48:06;7.10;;;0.80;;
71606;SDS011;60641;53.556;9.914;2024-01-15T02:50:33;4.70;;;0.70;;
71606;SDS011;60641;53.556;9.914;2024-01-15T02:52:59;5.60;;;0.60;;
71606;SDS011;60641;53.556;9.914;2024-01-15T02:55:26;5.90;;;0.60;;
71606;SDS011;60641;53.556;9.914;2024-01-15T02:57:55;6.40;;;0.70;;
71606;SDS011;60641;53.556;9.914;2024-01-15T03:00:22;7.00;;;0.70;;
71606;SDS011;60641;53.556;9.914;2024-01-15T03:02:50;6.90;;;0.80;;
71606;SDS011;60641;53.556;9.914;2024-01-15T03:05:17;6.90;;;0.70;;
71606;SDS011;60641;53.556;9.914;2024-01-15T03:07:44;6.20;;;0.70;;
71606;SDS011;60641;53.556;9.914;2024-01-15T03:10:10;5.10;;;0.70;;
71606;SDS011;60641;53.556;9.914;2024-01-15T03:12:37;4.80;;;0.70;;
71606;SDS011;60641;53.556;9.914;2024-01-15T03:15:03;5.30;;;0.50;;
71606;SDS011;60641;53.556;9.914;2024-01-15T03:17:30;5.40;;;0.70;;
71606;SDS011;60641;53.556;9.914;2024-01-15T03:19:57;5.00;;;0.70;;
71606;SDS011;60641;53.556;9.914;2024-01-15T03:22:23;6.60;;;0.60;;
71606;SDS011;60641;53.556;9.914;2024-01-15T03:24:50;9.00;;;0.80;;
71606;SDS011;60641;53.556;9.914;2024-01-15T03:27:16;6.60;;;0.60;;
71606;SDS011;60641;53.556;9.914;2024-01-15T03:29:42;9.20;;;1.00;;
71606;SDS011;60641;53.556;9.914;2024-01-15T03:32:09;6.30;;;0.80;;
71606;SDS011;60641;53.556;9.914;2024-01-15T03:34:35;8.00;;;1.10;;
71606;SDS011;60641;53.556;9.914;2024-01-15T03:37:02;11.70;;;1.20;;
71606;SDS011;60641;53.556;9.914;2024-01-15T03:39:28;8.60;;;1.20;;
71606;SDS011;60641;53.556;9.914;2024-01-15T03:41:55;6.00;;;0.90;;
71606;SDS011;60641;53.556;9.914;2024-01-15T03:44:21;8.20;;;1.10;;
71606;SDS011;60641;53.556;9.914;2024-01-15T03:46:48;7.90;;;0.90;;
71606;SDS011;60641;53.556;9.914;2024-01-15T03:49:14;7.50;;;0.90;;
71606;SDS011;60641;53.556;9.914;2024-01-15T03:51:41;10.20;;;1.00;;
71606;SDS011;60641;53.556;9.914;2024-01-15T03:54:07;10.00;;;1.30;;
71606;SDS011;60641;53.556;9.914;2024-01-15T03:56:34;8.60;;;1.00;;
71606;SDS011;60641;53.556;9.914;2024-01-15T03:59:00;7.90;;;0.90;;
71606;SDS011;60641;53.556;9.914;2024-01-15T04:01:26;7.60;;;0.80;;
71606;SDS011;60641;53.556;9.914;2024-01-15T04:03:53;9.80;;;1.10;;
71606;SDS011;60641;53.556;9.914;2024-01-15T04:06:20;12.00;;;1.30;;
71606;SDS011;60641;53.556;9.914;2024-01-15T04:08:47;10.30;;;1.50;;
71606;SDS011;60641;53.556;9.914;2024-01-15T04:11:13;13.90;;;1.40;;
71606;SDS011;60641;53.556;9.914;2024-01-15T04:13:39;10.70;;;1.20;;
71606;SDS011;60641;53.556;9.914;2024-01-15T04:16:06;12.00;;;1.10;;
71606;SDS011;60641;53.556;9.914;2024-01-15T04:18:32;13.00;;;1.30;;
71606;SDS011;60641;53.556;9.914;2024-01-15T04:20:59;11.80;;;1.20;;
71606;SDS011;60641;53.556;9.914;2024-01-15T04:23:25;14.40;;;1.50;;
71606;SDS011;60641;53.556;9.914;2024-01-15T04:25:52;11.20;;;1.10;;
71606;SDS011;60641;53.556;9.914;2024-01-15T04:28:18;9.80;;;1.30;;
71606;SDS011;60641;53.556;9.914;2024-01-15T04:30:45;17.70;;;1.40;;
71606;SDS011;60641;53.556;9.914;2024-01-15T04:33:11;16.50;;;1.70;;
71606;SDS011;60641;53.556;9.914;2024-01-15T04:35:37;11.50;;;1.30;;
71606;SDS011;60641;53.556;9.914;2024-01-15T04:38:04;11.50;;;1.80;;
71606;SDS011;60641;53.556;9.914;2024-01-15T04:40:30;13.10;;;1.60;;
71606;SDS011;60641;53.556;9.914;2024-01-15T04:42:57;11.10;;;1.20;;
71606;SDS011;60641;53.556;9.914;2024-01-15T04:45:23;12.50;;;1.10;;
71606;SDS011;60641;53.556;9.914;2024-01-15T04:47:54;10.20;;;1.10;;
71606;SDS011;60641;53.556;9.914;2024-01-15T04:50:24;12.20;;;1.30;;
71606;SDS011;60641;53.556;9.914;2024-01-15T04:52:50;10.60;;;1.50;;
71606;SDS011;60641;53.556;9.914;2024-01-15T04:55:17;10.60;;;1.10;;
71606;SDS011;60641;53.556;9.914;2024-01-15T04:57:43;13.60;;;1.50;;
71606;SDS011;60641;53.556;9.914;2024-01-15T05:00:10;11.70;;;1.50;;
71606;SDS011;60641;53.556;9.914;2024-01-15T05:02:37;11.90;;;1.50;;
71606;SDS011;60641;53.556;9.914;2024-01-15T05:05:03;14.60;;;1.20;;
71606;SDS011;60641;53.556;9.914;2024-01-15T05:07:30;13.50;;;1.20;;
71606;SDS011;60641;53.556;9.914;2024-01-15T05:09:56;10.80;;;1.20;;
71606;SDS011;60641;53.556;9.914;2024-01-15T05:12:23;8.20;;;1.40;;
71606;SDS011;60641;53.556;9.914;2024-01-15T05:14:49;12.40;;;1.40;;
71606;SDS011;60641;53.556;9.914;2024-01-15T05:17:16;13.60;;;1.40;;
71606;SDS011;60641;53.556;9.914;2024-01-15T05:19:42;12.50;;;1.70;;
71606;SDS011;60641;53.556;9.914;2024-01-15T05:22:08;12.20;;;1.70;;
71606;SDS011;60641;53.556;9.914;2024-01-15T05:24:35;12.10;;;1.30;;
71606;SDS011;60641;53.556;9.914;2024-01-15T05:27:02;15.10;;;1.40;;
71606;SDS011;60641;53.556;9.914;2024-01-15T05:29:29;11.90;;;1.30;;
71606;SDS011;60641;53.556;9.914;2024-01-15T05:31:56;9.30;;;1.20;;
71606;SDS011;60641;53.556;9.914;2024-01-15T05:34:22;10.10;;;1.10;;
71606;SDS011;60641;53.556;9.914;2024-01-15T05:36:49;15.40;;;1.50;;
71606;SDS011;60641;53.556;9.914;2024-01-15T05:39:16;10.70;;;1.40;;
71606;SDS011;60641;53.556;9.914;2024-01-15T05:41:42;11.70;;;1.20;;
71606;SDS011;60641;53.556;9.914;2024-01-15T05:44:09;10.50;;;1.10;;
71606;SDS011;60641;53.556;9.914;2024-01-15T05:46:36;10.50;;;1.20;;
71606;SDS011;60641;53.556;9.914;2024-01-15T05:49:02;10.60;;;1.30;;
71606;SDS011;60641;53.556;9.914;2024-01-15T05:51:29;10.00;;;1.10;;
71606;SDS011;60641;53.556;9.914;2024-01-15T05:53:55;8.10;;;1.00;;
71606;SDS011;60641;53.556;9.914;2024-01-15T05:56:21;11.70;;;1.20;;
71606;SDS011;60641;53.556;9.914;2024-01-15T05:58:50;10.70;;;1.60;;
71606;SDS011;60641;53.556;9.914;2024-01-15T06:01:16;10.70;;;1.40;;
71606;SDS011;60641;53.556;9.914;2024-01-15T06:03:43;11.60;;;1.20;;
71606;SDS011;60641;53.556;9.914;2024-01-15T06:06:09;11.10;;;1.30;;
71606;SDS011;60641;53.556;9.914;2024-01-15T06:08:36;11.30;;;1.60;;
71606;SDS011;60641;53.556;9.914;2024-01-15T06:11:02;9.10;;;1.30;;
71606;SDS011;60641;53.556;9.914;2024-01-15T06:13:29;11.00;;;1.10;;
71606;SDS011;60641;53.556;9.914;2024-01-15T06:15:55;11.60;;;1.50;;
71606;SDS011;60641;53.556;9.914;2024-01-15T06:18:22;8.40;;;1.20;;
71606;SDS011;60641;53.556;9.914;2024-01-15T06:20:49;11.30;;;2.10;;
71606;SDS011;60641;53.556;9.914;2024-01-15T06:23:15;11.70;;;1.90;;
71606;SDS011;60641;53.556;9.914;2024-01-15T06:25:41;10.90;;;1.30;;
71606;SDS011;60641;53.556;9.914;2024-01-15T06:28:08;10.40;;;1.40;;
71606;SDS011;60641;53.556;9.914;2024-01-15T06:30:35;8.70;;;0.80;;
71606;SDS011;60641;53.556;9.914;2024-01-15T06:33:02;15.40;;;1.50;;
71606;SDS011;60641;53.556;9.914;2024-01-15T06:35:29;8.90;;;1.30;;
71606;SDS011;60641;53.556;9.914;2024-01-15T06:37:56;10.50;;;1.20;;
71606;SDS011;60641;53.556;9.914;2024-01-15T06:40:22;11.50;;;1.20;;
71606;SDS011;60641;53.556;9.914;2024-01-15T06:42:49;12.70;;;1.30;;
71606;SDS011;60641;53.556;9.914;2024-01-15T06:45:16;13.30;;;1.50;;
71606;SDS011;60641;53.556;9.914;2024-01-15T06:47:42;10.30;;;1.30;;
71606;SDS011;60641;53.556;9.914;2024-01-15T06:50:08;9.70;;;1.70;;
71606;SDS011;60641;53.556;9.914;2024-01-15T06:52:35;12.70;;;1.30;;
71606;SDS011;60641;53.556;9.914;2024-01-15T06:55:01;11.90;;;1.30;;
71606;SDS011;60641;53.556;9.914;2024-01-15T06:57:28;16.60;;;3.80;;
71606;SDS011;60641;53.556;9.914;2024-01-15T06:59:54;10.30;;;1.50;;
71606;SDS011;60641;53.556;9.914;2024-01-15T07:02:21;12.70;;;1.60;;
71606;SDS011;60641;53.556;9.914;2024-01-15T07:04:47;11.50;;;1.70;;
71606;SDS011;60641;53.556;9.914;2024-01-15T07:07:14;9.70;;;1.60;;
71606;SDS011;60641;53.556;9.914;2024-01-15T07:09:41;8.10;;;1.50;;
71606;SDS011;60641;53.556;9.914;2024-01-15T07:12:07;9.20;;;1.30;;
71606;SDS011;60641;53.556;9.914;2024-01-15T07:14:34;7.70;;;0.90;;
71606;SDS011;60641;53.556;9.914;2024-01-15T07:17:00;12.50;;;1.30;;
71606;SDS011;60641;53.556;9.914;2024-01-15T07:19:27;8.10;;;1.10;;
71606;SDS011;60641;53.556;9.914;2024-01-15T07:21:54;11.70;;;1.70;;
71606;SDS011;60641;53.556;9.914;2024-01-15T07:24:21;10.80;;;1.40;;
71606;SDS011;60641;53.556;9.914;2024-01-15T07:26:47;11.80;;;1.20;;
71606;SDS011;60641;53.556;9.914;2024-01-15T07:29:14;7.40;;;0.90;;
71606;SDS011;60641;53.556;9.914;2024-01-15T07:31:40;7.80;;;1.00;;
71606;SDS011;60641;53.556;9.914;2024-01-15T07:34:07;9.50;;;1.30;;
71606;SDS011;60641;53.556;9.914;2024-01-15T07:36:33;8.50;;;0.80;;
71606;SDS011;60641;53.556;9.914;2024-01-15T07:39:00;10.10;;;1.10;;
71606;SDS011;60641;53.556;9.914;2024-01-15T07:41:26;9.90;;;0.80;;
71606;SDS011;60641;53.556;9.914;2024-01-15T07:43:52;7.70;;;0.90;;
71606;SDS011;60641;53.556;9.914;2024-01-15T07:46:22;8.30;;;0.90;;
71606;SDS011;60641;53.556;9.914;2024-01-15T07:48:48;10.20;;;1.00;;
71606;SDS011;60641;53.556;9.914;2024-01-15T07:51:17;10.10;;;1.00;;
71606;SDS011;60641;53.556;9.914;2024-01-15T07:53:44;7.10;;;0.90;;
71606;SDS011;60641;53.556;9.914;2024-01-15T07:56:10;8.40;;;0.80;;
71606;SDS011;60641;53.556;9.914;2024-01-15T07:58:36;9.80;;;1.30;;
71606;SDS011;60641;53.556;9.914;2024-01-15T08:01:03;6.40;;;0.80;;
71606;SDS011;60641;53.556;9.914;2024-01-15T08:03:30;7.20;;;0.90;;
71606;SDS011;60641;53.556;9.914;2024-01-15T08:05:56;7.70;;;1.10;;
71606;SDS011;60641;53.556;9.914;2024-01-15T08:08:25;5.60;;;0.80;;
71606;SDS011;60641;53.556;9.914;2024-01-15T08:10:52;8.10;;;1.00;;
71606;SDS011;60641;53.556;9.914;2024-01-15T08:13:19;10.50;;;0.70;;
71606;SDS011;60641;53.556;9.914;2024-01-15T08:15:46;6.80;;;0.70;;
71606;SDS011;60641;53.556;9.914;2024-01-15T08:18:12;12.20;;;1.30;;
71606;SDS011;60641;53.556;9.914;2024-01-15T08:20:39;8.10;;;1.00;;
71606;SDS011;60641;53.556;9.914;2024-01-15T08:23:05;10.00;;;0.90;;
71606;SDS011;60641;53.556;9.914;2024-01-15T08:25:32;9.20;;;1.00;;
71606;SDS011;60641;53.556;9.914;2024-01-15T08:27:58;10.30;;;1.00;;
71606;SDS011;60641;53.556;9.914;2024-01-15T08:30:28;7.60;;;1.10;;
71606;SDS011;60641;53.556;9.914;2024-01-15T08:32:54;6.90;;;1.20;;
71606;SDS011;60641;53.556;9.914;2024-01-15T08:35:21;8.70;;;1.10;;
71606;SDS011;60641;53.556;9.914;2024-01-15T08:37:49;6.30;;;0.70;;
71606;SDS011;60641;53.556;9.914;2024-01-15T08:40:16;7.30;;;0.90;;
71606;SDS011;60641;53.556;9.914;2024-01-15T08:42:44;7.60;;;0.80;;
71606;SDS011;60641;53.556;9.914;2024-01-15T08:45:12;6.70;;;0.70;;
71606;SDS011;60641;53.556;9.914;2024-01-15T08:47:39;5.50;;;0.70;;
71606;SDS011;60641;53.556;9.914;2024-01-15T08:50:06;7.60;;;0.90;;
71606;SDS011;60641;53.556;9.914;2024-01-15T08:52:36;5.30;;;0.50;;
71606;SDS011;60641;53.556;9.914;2024-01-15T08:55:03;4.80;;;0.80;;
71606;SDS011;60641;53.556;9.914;2024-01-15T08:57:30;5.70;;;1.40;;
71606;SDS011;60641;53.556;9.914;2024-01-15T08:59:57;8.20;;;0.80;;
71606;SDS011;60641;53.556;9.914;2024-01-15T09:02:24;14.60;;;1.10;;
71606;SDS011;60641;53.556;9.914;2024-01-15T09:04:51;5.00;;;0.80;;
71606;SDS011;60641;53.556;9.914;2024-01-15T09:07:18;5.60;;;0.80;;
71606;SDS011;60641;53.556;9.914;2024-01-15T09:09:45;8.10;;;1.00;;
71606;SDS011;60641;53.556;9.914;2024-01-15T09:12:12;8.50;;;1.00;;
71606;SDS011;60641;53.556;9.914;2024-01-15T09:14:44;6.40;;;0.90;;
71606;SDS011;60641;53.556;9.914;2024-01-15T09:17:10;9.00;;;1.10;;
71606;SDS011;60641;53.556;9.914;2024-01-15T09:19:37;6.70;;;0.90;;
71606;SDS011;60641;53.556;9.914;2024-01-15T09:22:05;6.80;;;0.60;;
71606;SDS011;60641;53.556;9.914;2024-01-15T09:24:32;8.00;;;0.90;;
71606;SDS011;60641;53.556;9.914;2024-01-15T09:26:58;7.40;;;0.80;;
71606;SDS011;60641;53.556;9.914;2024-01-15T09:29:25;6.70;;;0.80;;
71606;SDS011;60641;53.556;9.914;2024-01-15T09:31:51;5.30;;;1.10;;
71606;SDS011;60641;53.556;9.914;2024-01-15T09:34:18;6.90;;;0.90;;
71606;SDS011;60641;53.556;9.914;2024-01-15T09:36:44;7.50;;;0.90;;
71606;SDS011;60641;53.556;9.914;2024-01-15T09:39:11;5.00;;;0.70;;
71606;SDS011;60641;53.556;9.914;2024-01-15T09:41:37;7.50;;;0.70;;
71606;SDS011;60641;53.556;9.914;2024-01-15T09:44:04;5.00;;;0.80;;
71606;SDS011;60641;53.556;9.914;2024-01-15T09:46:31;6.40;;;0.70;;
71606;SDS011;60641;53.556;9.914;2024-01-15T09:48:58;4.60;;;0.60;;
71606;SDS011;60641;53.556;9.914;2024-01-15T09:51:25;7.10;;;1.10;;
71606;SDS011;60641;53.556;9.914;2024-01-15T09:53:51;3.50;;;0.60;;
71606;SDS011;60641;53.556;9.914;2024-01-15T09:56:18;4.50;;;0.70;;
71606;SDS011;60641;53.556;9.914;2024-01-15T09:58:45;6.00;;;1.00;;
71606;SDS011;60641;53.556;9.914;2024-01-15T10:01:12;7.40;;;0.70;;
71606;SDS011;60641;53.556;9.914;2024-01-15T10:03:40;4.90;;;1.10;;
71606;SDS011;60641;53.556;9.914;2024-01-15T10:06:07;8.20;;;1.00;;
71606;SDS011;60641;53.556;9.914;2024-01-15T10:08:36;6.00;;;0.80;;
71606;SDS011;60641;53.556;9.914;2024-01-15T10:11:03;5.50;;;0.70;;
71606;SDS011;60641;53.556;9.914;2024-01-15T10:13:30;5.90;;;0.80;;
71606;SDS011;60641;53.556;9.914;2024-01-15T10:15:57;5.70;;;0.70;;
71606;SDS011;60641;53.556;9.914;2024-01-15T10:18:24;5.30;;;0.70;;
71606;SDS011;60641;53.556;9.914;2024-01-15T10:20:51;6.30;;;1.10;;
71606;SDS011;60641;53.556;9.914;2024-01-15T10:23:17;6.50;;;0.90;;
71606;SDS011;60641;53.556;9.914;2024-01-15T10:25:45;2.30;;;0.50;;
71606;SDS011;60641;53.556;9.914;2024-01-15T10:28:13;2.00;;;0.50;;
71606;SDS011;60641;53.556;9.914;2024-01-15T10:30:39;3.40;;;0.60;;
71606;SDS011;60641;53.556;9.914;2024-01-15T10:33:06;3.80;;;0.70;;
71606;SDS011;60641;53.556;9.914;2024-01-15T10:35:33;8.00;;;0.60;;
71606;SDS011;60641;53.556;9.914;2024-01-15T10:38:00;4.40;;;1.10;;
71606;SDS011;60641;53.556;9.914;2024-01-15T10:40:28;5.00;;;0.70;;
71606;SDS011;60641;53.556;9.914;2024-01-15T10:42:54;4.20;;;0.60;;
71606;SDS011;60641;53.556;9.914;2024-01-15T10:45:22;4.10;;;0.50;;
71606;SDS011;60641;53.556;9.914;2024-01-15T10:47:49;5.20;;;0.70;;
71606;SDS011;60641;53.556;9.914;2024-01-15T10:50:16;2.60;;;1.00;;
71606;SDS011;60641;53.556;9.914;2024-01-15T10:52:42;9.40;;;2.60;;
71606;SDS011;60641;53.556;9.914;2024-01-15T10:55:12;6.60;;;1.40;;
71606;SDS011;60641;53.556;9.914;2024-01-15T10:57:38;3.20;;;0.50;;
71606;SDS011;60641;53.556;9.914;2024-01-15T11:00:05;2.20;;;0.50;;
71606;SDS011;60641;53.556;9.914;2024-01-15T11:02:33;3.50;;;0.40;;
71606;SDS011;60641;53.556;9.914;2024-01-15T11:05:01;3.60;;;0.50;;
71606;SDS011;60641;53.556;9.914;2024-01-15T11:07:30;2.70;;;0.40;;
71606;SDS011;60641;53.556;9.914;2024-01-15T11:09:57;2.20;;;0.40;;
71606;SDS011;60641;53.556;9.914;2024-01-15T11:12:26;2.80;;;0.60;;
71606;SDS011;60641;53.556;9.914;2024-01-15T11:15:00;3.90;;;0.60;;
71606;SDS011;60641;53.556;9.914;2024-01-15T11:17:57;2.40;;;0.40;;
71606;SDS011;60641;53.556;9.914;2024-01-15T11:20:23;4.50;;;0.60;;
71606;SDS011;60641;53.556;9.914;2024-01-15T11:22:50;4.10;;;0.50;;
71606;SDS011;60641;53.556;9.914;2024-01-15T11:25:19;2.30;;;0.60;;
71606;SDS011;60641;53.556;9.914;2024-01-15T11:27:47;2.00;;;0.40;;
71606;SDS011;60641;53.556;9.914;2024-01-15T11:30:18;4.30;;;0.70;;
71606;SDS011;60641;53.556;9.914;2024-01-15T11:32:46;4.80;;;1.00;;
71606;SDS011;60641;53.556;9.914;2024-01-15T11:35:12;2.60;;;0.80;;
71606;SDS011;60641;53.556;9.914;2024-01-15T11:40:35;2.50;;;0.50;;
71606;SDS011;60641;53.556;9.914;2024-01-15T11:43:04;2.90;;;0.50;;
71606;SDS011;60641;53.556;9.914;2024-01-15T11:45:32;6.50;;;2.10;;
71606;SDS011;60641;53.556;9.914;2024-01-15T11:48:10;4.70;;;1.00;;
71606;SDS011;60641;53.556;9.914;2024-01-15T11:50:48;2.70;;;0.70;;
71606;SDS011;60641;53.556;9.914;2024-01-15T11:53:27;2.00;;;0.40;;
71606;SDS011;60641;53.556;9.914;2024-01-15T11:55:59;3.90;;;0.60;;
71606;SDS011;60641;53.556;9.914;2024-01-15T11:58:28;2.70;;;0.50;;
71606;SDS011;60641;53.556;9.914;2024-01-15T12:00:55;3.70;;;0.60;;
71606;SDS011;60641;53.556;9.914;2024-01-15T12:03:22;4.50;;;0.90;;
71606;SDS011;60641;53.556;9.914;2024-01-15T12:05:49;5.30;;;0.60;;
71606;SDS011;60641;53.556;9.914;2024-01-15T12:08:20;2.50;;;0.40;;
71606;SDS011;60641;53.556;9.914;2024-01-15T12:10:47;3.70;;;0.50;;
71606;SDS011;60641;53.556;9.914;2024-01-15T12:13:14;2.00;;;0.40;;
71606;SDS011;60641;53.556;9.914;2024-01-15T12:15:42;3.20;;;0.50;;
71606;SDS011;60641;53.556;9.914;2024-01-15T12:18:10;2.40;;;0.40;;
71606;SDS011;60641;53.556;9.914;2024-01-15T12:20:39;1.30;;;0.40;;
71606;SDS011;60641;53.556;9.914;2024-01-15T12:23:06;1.70;;;0.30;;
71606;SDS011;60641;53.556;9.914;2024-01-15T12:25:33;1.40;;;0.40;;
71606;SDS011;60641;53.556;9.914;2024-01-15T12:28:00;1.00;;;0.30;;
71606;SDS011;60641;53.556;9.914;2024-01-15T12:30:29;5.50;;;1.20;;
71606;SDS011;60641;53.556;9.914;2024-01-15T12:33:01;4.40;;;0.80;;
71606;SDS011;60641;53.556;9.914;2024-01-15T12:35:36;3.00;;;0.50;;
71606;SDS011;60641;53.556;9.914;2024-01-15T12:38:07;2.00;;;0.50;;
71606;SDS011;60641;53.556;9.914;2024-01-15T12:40:33;4.30;;;0.60;;
71606;SDS011;60641;53.556;9.914;2024-01-15T12:43:05;3.10;;;0.50;;
71606;SDS011;60641;53.556;9.914;2024-01-15T12:45:34;2.30;;;0.50;;
71606;SDS011;60641;53.556;9.914;2024-01-15T12:48:07;3.10;;;0.50;;
71606;SDS011;60641;53.556;9.914;2024-01-15T12:50:42;2.60;;;0.60;;
71606;SDS011;60641;53.556;9.914;2024-01-15T12:53:11;3.10;;;0.50;;
71606;SDS011;60641;53.556;9.914;2024-01-15T12:55:38;5.30;;;0.60;;
71606;SDS011;60641;53.556;9.914;2024-01-15T12:58:04;2.70;;;0.70;;
71606;SDS011;60641;53.556;9.914;2024-01-15T13:00:31;2.00;;;0.60;;
71606;SDS011;60641;53.556;9.914;2024-01-15T13:02:58;3.20;;;0.70;;
71606;SDS011;60641;53.556;9.914;2024-01-15T13:05:24;3.80;;;0.70;;
71606;SDS011;60641;53.556;9.914;2024-01-15T13:07:53;3.00;;;0.70;;
71606;SDS011;60641;53.556;9.914;2024-01-15T13:10:20;1.60;;;0.50;;
71606;SDS011;60641;53.556;9.914;2024-01-15T13:12:46;2.80;;;0.70;;
71606;SDS011;60641;53.556;9.914;2024-01-15T13:15:12;3.70;;;0.70;;
71606;SDS011;60641;53.556;9.914;2024-01-15T13:17:39;4.10;;;0.60;;
71606;SDS011;60641;53.556;9.914;2024-01-15T13:20:06;3.00;;;0.60;;
71606;SDS011;60641;53.556;9.914;2024-01-15T13:22:33;3.20;;;0.90;;
71606;SDS011;60641;53.556;9.914;2024-01-15T13:24:59;3.70;;;0.80;;
71606;SDS011;60641;53.556;9.914;2024-01-15T13:27:28;3.30;;;0.70;;
71606;SDS011;60641;53.556;9.914;2024-01-15T13:30:02;3.90;;;0.90;;
71606;SDS011;60641;53.556;9.914;2024-01-15T13:32:29;3.10;;;0.70;;
71606;SDS011;60641;53.556;9.914;2024-01-15T13:34:56;5.00;;;0.70;;
71606;SDS011;60641;53.556;9.914;2024-01-15T13:37:23;3.80;;;1.00;;
71606;SDS011;60641;53.556;9.914;2024-01-15T13:39:50;2.40;;;0.70;;
71606;SDS011;60641;53.556;9.914;2024-01-15T13:42:20;2.70;;;0.70;;
71606;SDS011;60641;53.556;9.914;2024-01-15T13:44:49;3.70;;;0.60;;
71606;SDS011;60641;53.556;9.914;2024-01-15T13:47:16;3.30;;;0.60;;
71606;SDS011;60641;53.556;9.914;2024-01-15T13:49:42;3.10;;;0.90;;
71606;SDS011;60641;53.556;9.914;2024-01-15T13:52:09;3.70;;;0.80;;
71606;SDS011;60641;53.556;9.914;2024-01-15T13:54:38;5.00;;;1.10;;
71606;SDS011;60641;53.556;9.914;2024-01-15T13:57:04;4.00;;;1.10;;
71606;SDS011;60641;53.556;9.914;2024-01-15T13:59:32;7.80;;;3.10;;
71606;SDS011;60641;53.556;9.914;2024-01-15T14:01:58;4.60;;;1.40;;
71606;SDS011;60641;53.556;9.914;2024-01-15T14:04:25;3.00;;;1.00;;
71606;SDS011;60641;53.556;9.914;2024-01-15T14:06:51;2.60;;;0.80;;
71606;SDS011;60641;53.556;9.914;2024-01-15T14:09:18;3.50;;;0.80;;
71606;SDS011;60641;53.556;9.914;2024-01-15T14:11:44;3.80;;;0.80;;
71606;SDS011;60641;53.556;9.914;2024-01-15T14:14:12;3.00;;;0.70;;
71606;SDS011;60641;53.556;9.914;2024-01-15T14:16:38;1.30;;;0.50;;
71606;SDS011;60641;53.556;9.914;2024-01-15T14:19:05;2.40;;;0.70;;
71606;SDS011;60641;53.556;9.914;2024-01-15T14:21:32;3.50;;;0.90;;
71606;SDS011;60641;53.556;9.914;2024-01-15T14:23:59;3.10;;;0.80;;
71606;SDS011;60641;53.556;9.914;2024-01-15T14:26:25;5.20;;;2.00;;
71606;SDS011;60641;53.556;9.914;2024-01-15T14:28:52;3.40;;;0.80;;
71606;SDS011;60641;53.556;9.914;2024-01-15T14:31:19;3.30;;;0.80;;
71606;SDS011;60641;53.556;9.914;2024-01-15T14:33:46;4.30;;;0.90;;
71606;SDS011;60641;53.556;9.914;2024-01-15T14:36:12;3.60;;;1.00;;
71606;SDS011;60641;53.556;9.914;2024-01-15T14:38:39;4.20;;;1.30;;
71606;SDS011;60641;53.556;9.914;2024-01-15T14:41:05;4.20;;;1.30;;
71606;SDS011;60641;53.556;9.914;2024-01-15T14:43:32;4.20;;;1.20;;
71606;SDS011;60641;53.556;9.914;2024-01-15T14:45:59;3.60;;;1.00;;
71606;SDS011;60641;53.556;9.914;2024-01-15T14:48:26;4.10;;;1.20;;